createdAt,value
2023-06-19T00:01:12.577Z,24.60
2023-06-19T00:03:39.997Z,24.60
2023-06-19T00:06:07.750Z,24.70
2023-06-19T00:08:35.439Z,24.70
2023-06-19T00:11:03.056Z,24.70
2023-06-19T00:13:55.451Z,24.60
2023-06-19T00:16:22.803Z,24.50
2023-06-19T00:18:50.164Z,24.40
2023-06-19T00:21:17.417Z,24.40
2023-06-19T00:23:44.662Z,24.30
2023-06-19T00:26:15.536Z,24.20
2023-06-19T00:28:46.259Z,24.10
2023-06-19T00:31:14.942Z,24.10
2023-06-19T00:33:42.657Z,24.10
2023-06-19T00:36:13.942Z,24.10
2023-06-19T00:38:41.519Z,24.10
2023-06-19T00:41:09.937Z,24.00
2023-06-19T00:44:02.665Z,24.00
2023-06-19T00:46:30.430Z,24.00
2023-06-19T00:48:58.378Z,23.90
2023-06-19T00:51:25.721Z,23.90
2023-06-19T00:53:53.538Z,23.90
2023-06-19T00:56:20.782Z,23.90
2023-06-19T00:58:48.386Z,23.80
2023-06-19T01:01:16.013Z,23.80
2023-06-19T01:03:43.651Z,23.80
2023-06-19T01:06:23.021Z,23.80
2023-06-19T01:09:02.215Z,23.60
2023-06-19T01:11:37.064Z,23.50
2023-06-19T01:14:10.413Z,23.40
2023-06-19T01:16:38.493Z,23.40
2023-06-19T01:19:10.719Z,23.40
2023-06-19T01:21:38.697Z,23.30
2023-06-19T01:24:06.203Z,23.30
2023-06-19T01:26:34.389Z,23.20
2023-06-19T01:29:02.110Z,23.20
2023-06-19T01:31:40.076Z,23.20
2023-06-19T01:34:09.782Z,23.10
2023-06-19T01:36:37.311Z,23.10
2023-06-19T01:39:05.469Z,23.10
2023-06-19T01:41:34.553Z,23.10
2023-06-19T01:44:01.849Z,23.10
2023-06-19T01:46:29.255Z,23.10
2023-06-19T01:48:58.260Z,23.00
2023-06-19T01:51:26.759Z,23.00
2023-06-19T01:53:54.248Z,23.10
2023-06-19T01:56:21.692Z,23.00
2023-06-19T01:58:49.024Z,23.10
2023-06-19T02:01:16.943Z,23.00
2023-06-19T02:03:44.310Z,22.90
2023-06-19T02:06:11.853Z,23.00
2023-06-19T02:08:39.160Z,23.00
2023-06-19T02:11:06.513Z,23.00
2023-06-19T02:13:34.343Z,23.00
2023-06-19T02:16:02.707Z,23.00
2023-06-19T02:18:30.059Z,23.00
2023-06-19T02:20:57.827Z,23.10
2023-06-19T02:23:25.801Z,23.10
2023-06-19T02:25:55.367Z,23.10
2023-06-19T02:28:22.643Z,23.10
2023-06-19T02:30:51.035Z,23.20
2023-06-19T02:33:18.334Z,23.10
2023-06-19T02:35:46.984Z,23.20
2023-06-19T02:38:15.726Z,23.10
2023-06-19T02:40:43.134Z,23.10
2023-06-19T02:43:11.714Z,23.10
2023-06-19T02:45:39.358Z,23.10
2023-06-19T02:48:07.321Z,23.00
2023-06-19T02:50:35.379Z,22.90
2023-06-19T02:53:02.840Z,22.90
2023-06-19T02:55:30.108Z,22.90
2023-06-19T02:57:57.774Z,22.90
2023-06-19T03:00:26.143Z,22.80
2023-06-19T03:02:54.838Z,22.90
2023-06-19T03:05:22.298Z,22.90
2023-06-19T03:07:49.758Z,22.90
2023-06-19T03:10:17.680Z,22.70
2023-06-19T03:12:44.991Z,22.50
2023-06-19T03:15:12.408Z,22.50
2023-06-19T03:17:43.686Z,22.60
2023-06-19T03:20:13.576Z,22.70
2023-06-19T03:22:46.674Z,22.70
2023-06-19T03:25:16.443Z,22.70
2023-06-19T03:27:43.916Z,22.70
2023-06-19T03:30:13.976Z,22.80
2023-06-19T03:32:43.262Z,22.70
2023-06-19T03:35:18.444Z,22.70
2023-06-19T03:37:45.801Z,22.70
2023-06-19T03:40:15.038Z,22.70
2023-06-19T03:43:17.632Z,22.70
2023-06-19T03:45:46.067Z,22.50
2023-06-19T03:48:13.794Z,22.20
2023-06-19T03:50:42.720Z,22.00
2023-06-19T03:53:10.168Z,22.00
2023-06-19T03:55:40.438Z,22.00
2023-06-19T03:58:07.704Z,22.10
2023-06-19T04:00:35.124Z,22.20
2023-06-19T04:03:02.824Z,22.10
2023-06-19T04:05:30.658Z,22.20
2023-06-19T04:07:58.128Z,22.30
2023-06-19T04:10:25.610Z,22.40
2023-06-19T04:12:56.646Z,22.50
2023-06-19T04:15:24.239Z,22.50
2023-06-19T04:17:51.502Z,22.40
2023-06-19T04:20:18.869Z,22.20
2023-06-19T04:22:48.509Z,22.00
2023-06-19T04:25:15.966Z,21.80
2023-06-19T04:27:45.839Z,21.80
2023-06-19T04:30:13.735Z,21.90
2023-06-19T04:32:41.935Z,22.00
2023-06-19T04:35:10.303Z,22.10
2023-06-19T04:37:37.678Z,22.00
2023-06-19T04:40:05.737Z,22.00
2023-06-19T04:42:33.042Z,22.10
2023-06-19T04:45:01.156Z,22.10
2023-06-19T04:47:36.272Z,22.20
2023-06-19T04:50:08.851Z,22.30
2023-06-19T04:52:36.299Z,22.40
2023-06-19T04:55:03.902Z,22.40
2023-06-19T04:57:31.158Z,22.50
2023-06-19T04:59:58.941Z,22.40
2023-06-19T05:02:26.298Z,22.40
2023-06-19T05:04:53.742Z,22.50
2023-06-19T05:07:21.090Z,22.70
2023-06-19T05:09:48.379Z,23.00
2023-06-19T05:12:15.656Z,23.10
2023-06-19T05:14:42.966Z,23.10
2023-06-19T05:17:10.777Z,23.20
2023-06-19T05:19:38.178Z,23.30
2023-06-19T05:22:05.843Z,23.70
2023-06-19T05:24:33.531Z,24.00
2023-06-19T05:27:00.852Z,24.30
2023-06-19T05:29:28.162Z,24.40
2023-06-19T05:31:55.548Z,24.60
2023-06-19T05:34:23.941Z,24.80
2023-06-19T05:36:51.410Z,25.00
2023-06-19T05:39:19.989Z,25.20
2023-06-19T05:41:47.236Z,25.40
2023-06-19T05:44:17.046Z,25.70
2023-06-19T05:46:44.389Z,26.10
2023-06-19T05:49:11.910Z,26.40
2023-06-19T05:51:39.348Z,26.40
2023-06-19T05:54:06.662Z,26.60
2023-06-19T05:56:34.636Z,26.70
2023-06-19T05:59:02.733Z,27.00
2023-06-19T06:01:30.943Z,27.10
2023-06-19T06:03:58.568Z,27.00
2023-06-19T06:06:26.707Z,27.00
2023-06-19T06:08:55.891Z,27.10
2023-06-19T06:11:23.592Z,27.10
2023-06-19T06:13:50.926Z,27.00
2023-06-19T06:16:18.229Z,27.10
2023-06-19T06:18:46.804Z,27.30
2023-06-19T06:21:14.469Z,27.50
2023-06-19T06:23:42.574Z,27.70
2023-06-19T06:26:12.751Z,28.00
2023-06-19T06:28:40.417Z,28.20
2023-06-19T06:31:08.261Z,28.20
2023-06-19T06:33:44.851Z,27.90
2023-06-19T06:36:19.268Z,27.70
2023-06-19T06:38:55.254Z,27.90
2023-06-19T06:41:22.733Z,28.20
2023-06-19T06:43:50.148Z,28.50
2023-06-19T06:46:17.646Z,28.80
2023-06-19T06:48:45.368Z,28.80
2023-06-19T06:51:12.747Z,28.80
2023-06-19T06:53:40.061Z,28.50
2023-06-19T06:56:07.390Z,29.00
2023-06-19T06:58:34.703Z,29.10
2023-06-19T07:01:02.102Z,29.30
2023-06-19T07:03:32.680Z,29.20
2023-06-19T07:06:00.047Z,29.10
2023-06-19T07:08:27.374Z,28.70
2023-06-19T07:10:54.686Z,27.30
2023-06-19T07:13:22.369Z,27.20
2023-06-19T07:15:49.608Z,27.50
2023-06-19T07:18:16.942Z,27.90
2023-06-19T07:20:44.407Z,28.30
2023-06-19T07:23:12.279Z,29.00
2023-06-19T07:25:39.660Z,29.50
2023-06-19T07:28:06.939Z,29.80
2023-06-19T07:30:34.410Z,30.10
2023-06-19T07:33:01.866Z,30.40
2023-06-19T07:35:29.294Z,30.80
2023-06-19T07:37:56.610Z,30.90
2023-06-19T07:40:24.266Z,30.60
2023-06-19T07:42:51.989Z,30.50
2023-06-19T07:45:19.328Z,30.50
2023-06-19T07:47:56.141Z,30.60
2023-06-19T07:50:27.060Z,30.70
2023-06-19T07:52:55.000Z,31.10
2023-06-19T07:55:22.291Z,31.40
2023-06-19T07:57:49.770Z,31.50
2023-06-19T08:00:17.375Z,31.60
2023-06-19T08:02:44.816Z,31.80
2023-06-19T08:05:12.399Z,31.90
2023-06-19T08:07:39.959Z,32.20
2023-06-19T08:10:13.131Z,32.10
2023-06-19T08:12:45.898Z,32.30
2023-06-19T08:15:16.357Z,32.60
2023-06-19T08:17:44.305Z,32.80
2023-06-19T08:20:12.104Z,32.80
2023-06-19T08:22:39.423Z,32.80
2023-06-19T08:25:07.165Z,32.80
2023-06-19T08:27:34.735Z,32.60
2023-06-19T08:31:04.891Z,32.10
2023-06-19T08:33:32.221Z,32.10
2023-06-19T08:35:59.525Z,31.80
2023-06-19T08:38:26.830Z,31.80
2023-06-19T08:40:56.364Z,31.60
2023-06-19T08:43:24.424Z,32.10
2023-06-19T08:46:09.623Z,32.20
2023-06-19T08:48:37.401Z,32.20
2023-06-19T08:51:05.653Z,32.30
2023-06-19T08:53:36.378Z,32.20
2023-06-19T08:56:06.223Z,32.40
2023-06-19T08:58:33.888Z,32.40
2023-06-19T09:01:01.289Z,32.20
2023-06-19T09:03:28.723Z,32.40
2023-06-19T09:05:56.249Z,32.50
2023-06-19T09:08:24.511Z,32.20
2023-06-19T09:10:57.090Z,31.90
2023-06-19T09:13:24.404Z,31.90
2023-06-19T09:16:04.053Z,32.30
2023-06-19T09:18:32.843Z,32.50
2023-06-19T09:21:00.320Z,33.00
2023-06-19T09:23:27.647Z,32.80
2023-06-19T09:25:59.257Z,33.10
2023-06-19T09:28:29.452Z,33.20
2023-06-19T09:31:00.992Z,32.80
2023-06-19T09:33:30.989Z,32.90
2023-06-19T09:35:59.903Z,33.20
2023-06-19T09:38:29.139Z,33.30
2023-06-19T09:40:59.684Z,33.20
2023-06-19T09:43:42.466Z,33.20
2023-06-19T09:46:11.881Z,33.20
2023-06-19T09:48:47.486Z,32.60
2023-06-19T09:51:38.588Z,32.70
2023-06-19T09:54:07.686Z,33.00
2023-06-19T09:56:35.688Z,32.60
2023-06-19T09:59:05.586Z,32.60
2023-06-19T10:01:33.859Z,32.80
2023-06-19T10:04:09.210Z,33.10
2023-06-19T10:06:50.076Z,33.20
2023-06-19T10:09:19.277Z,33.10
2023-06-19T10:11:53.729Z,33.30
2023-06-19T10:14:22.533Z,33.30
2023-06-19T10:16:50.676Z,33.30
2023-06-19T10:19:21.548Z,33.20
2023-06-19T10:21:51.362Z,33.30
2023-06-19T10:24:21.103Z,33.10
2023-06-19T10:27:03.551Z,32.90
2023-06-19T10:29:42.915Z,32.90
2023-06-19T10:32:15.018Z,33.10
2023-06-19T10:34:50.223Z,33.10
2023-06-19T10:37:18.129Z,33.10
2023-06-19T10:39:45.740Z,32.80
2023-06-19T10:42:13.083Z,32.20
2023-06-19T10:44:43.057Z,32.20
2023-06-19T10:47:10.457Z,32.20
2023-06-19T10:49:37.873Z,32.20
2023-06-19T10:54:55.390Z,32.30
2023-06-19T10:57:32.189Z,32.30
2023-06-19T10:59:59.756Z,32.20
2023-06-19T11:02:27.455Z,31.70
2023-06-19T11:04:55.919Z,31.40
2023-06-19T11:07:24.169Z,31.70
2023-06-19T11:09:51.676Z,31.90
2023-06-19T11:12:22.600Z,32.00
2023-06-19T11:14:50.574Z,32.10
2023-06-19T11:17:24.738Z,32.20
2023-06-19T11:19:52.351Z,32.20
2023-06-19T11:22:19.635Z,32.00
2023-06-19T11:24:47.580Z,32.10
2023-06-19T11:27:28.360Z,32.10
2023-06-19T11:29:57.681Z,32.00
2023-06-19T11:32:26.223Z,32.30
2023-06-19T11:34:54.805Z,32.40
2023-06-19T11:37:22.401Z,32.50
2023-06-19T11:39:51.937Z,32.50
2023-06-19T11:42:19.607Z,32.40
2023-06-19T11:44:57.091Z,32.50
2023-06-19T11:47:24.780Z,32.60
2023-06-19T11:49:52.720Z,32.60
2023-06-19T11:52:20.187Z,32.50
2023-06-19T11:54:48.115Z,32.50
2023-06-19T11:57:15.508Z,32.40
2023-06-19T11:59:43.395Z,32.00
2023-06-19T12:02:10.939Z,31.60
2023-06-19T12:04:38.331Z,31.30
2023-06-19T12:07:16.713Z,31.50
2023-06-19T12:09:44.297Z,31.70
2023-06-19T12:12:11.735Z,31.50
2023-06-19T12:14:40.666Z,31.20
2023-06-19T12:17:08.118Z,31.40
2023-06-19T12:19:35.542Z,31.50
2023-06-19T12:22:04.812Z,31.50
2023-06-19T12:24:32.102Z,31.50
2023-06-19T12:26:59.390Z,31.40
2023-06-19T12:29:27.336Z,31.30
2023-06-19T12:32:01.324Z,31.20
2023-06-19T12:34:31.557Z,31.30
2023-06-19T12:36:59.413Z,31.60
2023-06-19T12:39:27.354Z,31.70
2023-06-19T12:41:57.402Z,31.90
2023-06-19T12:44:25.684Z,32.00
2023-06-19T12:46:53.986Z,32.20
2023-06-19T12:49:21.326Z,32.20
2023-06-19T12:51:52.291Z,32.20
2023-06-19T12:55:09.583Z,32.20
2023-06-19T12:57:37.475Z,32.30
2023-06-19T13:00:09.221Z,32.40
2023-06-19T13:02:36.694Z,32.00
2023-06-19T13:05:04.156Z,32.00
2023-06-19T13:07:32.733Z,32.20
2023-06-19T13:10:00.443Z,32.30
2023-06-19T13:12:27.835Z,32.40
2023-06-19T13:14:55.097Z,32.50
2023-06-19T13:17:22.472Z,32.30
2023-06-19T13:19:49.825Z,32.40
2023-06-19T13:22:17.147Z,32.50
2023-06-19T13:24:44.528Z,32.50
2023-06-19T13:27:11.890Z,32.60
2023-06-19T13:29:40.745Z,32.60
2023-06-19T13:32:08.561Z,32.60
2023-06-19T13:34:35.918Z,32.60
2023-06-19T13:37:03.879Z,32.50
2023-06-19T13:39:31.450Z,32.30
2023-06-19T13:42:01.074Z,32.30
2023-06-19T13:44:28.741Z,32.30
2023-06-19T13:46:56.104Z,32.30
2023-06-19T13:49:23.484Z,32.30
2023-06-19T13:51:51.924Z,32.30
2023-06-19T13:54:19.918Z,32.30
2023-06-19T13:57:18.748Z,32.40
2023-06-19T13:59:46.088Z,32.40
2023-06-19T14:02:13.713Z,32.40
2023-06-19T14:04:41.108Z,32.40
2023-06-19T14:07:08.792Z,32.40
2023-06-19T14:09:36.056Z,32.30
2023-06-19T14:12:03.606Z,32.40
2023-06-19T14:14:31.029Z,32.40
2023-06-19T14:16:59.430Z,32.40
2023-06-19T14:19:26.924Z,32.50
2023-06-19T14:21:54.333Z,32.40
2023-06-19T14:24:21.797Z,32.40
2023-06-19T14:26:49.163Z,32.40
2023-06-19T14:29:19.845Z,32.50
2023-06-19T14:31:47.521Z,32.60
2023-06-19T14:34:23.861Z,32.50
2023-06-19T14:36:51.311Z,32.60
2023-06-19T14:39:18.598Z,32.60
2023-06-19T14:41:45.934Z,32.50
2023-06-19T14:44:13.454Z,32.50
2023-06-19T14:46:41.011Z,32.50
2023-06-19T14:49:10.900Z,32.60
2023-06-19T14:51:38.191Z,32.50
2023-06-19T14:54:05.705Z,32.40
2023-06-19T14:56:33.006Z,32.40
2023-06-19T14:59:00.339Z,32.40
2023-06-19T15:01:56.549Z,32.50
2023-06-19T15:04:24.134Z,32.50
2023-06-19T15:06:51.872Z,32.50
2023-06-19T15:09:19.204Z,32.50
2023-06-19T15:11:46.598Z,32.40
2023-06-19T15:14:13.944Z,32.40
2023-06-19T15:16:41.632Z,32.50
2023-06-19T15:19:09.002Z,32.50
2023-06-19T15:21:36.513Z,32.40
2023-06-19T15:24:04.221Z,32.40
2023-06-19T15:26:31.577Z,32.40
2023-06-19T15:28:58.912Z,32.40
2023-06-19T15:31:27.179Z,32.40
2023-06-19T15:33:54.616Z,32.30
2023-06-19T15:36:22.172Z,32.30
2023-06-19T15:38:49.476Z,32.40
2023-06-19T15:41:16.777Z,32.50
2023-06-19T15:43:44.159Z,32.40
2023-06-19T15:46:12.630Z,32.40
2023-06-19T15:48:40.010Z,32.40
2023-06-19T15:51:07.281Z,32.40
2023-06-19T15:53:34.726Z,32.40
2023-06-19T15:56:02.901Z,32.40
2023-06-19T15:58:30.211Z,32.40
2023-06-19T16:00:57.506Z,32.40
2023-06-19T16:03:25.673Z,32.40
2023-06-19T16:08:26.381Z,32.30
2023-06-19T16:10:54.115Z,32.30
2023-06-19T16:13:21.438Z,32.30
2023-06-19T16:15:48.803Z,32.30
2023-06-19T16:18:16.327Z,32.20
2023-06-19T16:20:43.700Z,32.20
2023-06-19T16:23:11.215Z,32.10
2023-06-19T16:25:38.794Z,31.90
2023-06-19T16:28:06.363Z,31.90
2023-06-19T16:30:34.473Z,31.90
2023-06-19T16:33:03.850Z,31.80
2023-06-19T16:35:31.407Z,31.90
2023-06-19T16:37:58.693Z,31.90
2023-06-19T16:40:27.115Z,31.90
2023-06-19T16:42:54.919Z,31.80
2023-06-19T16:45:24.802Z,31.80
2023-06-19T16:47:52.234Z,31.90
2023-06-19T16:50:19.620Z,31.90
2023-06-19T16:52:46.877Z,31.80
2023-06-19T16:55:14.432Z,31.80
2023-06-19T16:57:41.905Z,31.70
2023-06-19T17:00:11.468Z,31.60
2023-06-19T17:02:38.951Z,31.60
2023-06-19T17:05:06.810Z,31.60
2023-06-19T17:07:34.186Z,31.60
2023-06-19T17:10:03.439Z,31.60
2023-06-19T17:12:34.149Z,31.60
2023-06-19T17:15:01.739Z,31.60
2023-06-19T17:17:29.183Z,31.60
2023-06-19T17:19:56.629Z,31.60
2023-06-19T17:22:24.080Z,31.70
2023-06-19T17:24:51.569Z,31.60
2023-06-19T17:27:19.125Z,31.60
2023-06-19T17:29:46.403Z,31.60
2023-06-19T17:32:13.669Z,31.40
2023-06-19T17:34:40.901Z,31.30
2023-06-19T17:37:08.265Z,31.20
2023-06-19T17:39:35.541Z,31.10
2023-06-19T17:42:02.909Z,31.10
2023-06-19T17:44:31.414Z,31.00
2023-06-19T17:46:59.961Z,31.00
2023-06-19T17:49:27.312Z,31.00
2023-06-19T17:51:54.582Z,31.00
2023-06-19T17:54:22.578Z,31.00
2023-06-19T17:56:50.084Z,31.00
2023-06-19T17:59:17.505Z,31.00
2023-06-19T18:01:44.865Z,30.90
2023-06-19T18:04:13.975Z,30.90
2023-06-19T18:06:43.579Z,30.90
2023-06-19T18:09:10.853Z,30.90
2023-06-19T18:11:38.489Z,30.80
2023-06-19T18:14:07.115Z,30.80
2023-06-19T18:16:38.447Z,30.80
2023-06-19T18:19:06.270Z,30.70
2023-06-19T18:21:33.608Z,30.70
2023-06-19T18:24:02.627Z,30.70
2023-06-19T18:26:32.407Z,30.70
2023-06-19T18:29:00.380Z,30.60
2023-06-19T18:31:27.889Z,30.60
2023-06-19T18:33:55.601Z,30.50
2023-06-19T18:36:22.979Z,30.50
2023-06-19T18:38:50.372Z,30.40
2023-06-19T18:41:17.785Z,30.40
2023-06-19T18:43:45.297Z,30.30
2023-06-19T18:46:12.590Z,30.30
2023-06-19T18:48:41.925Z,30.20
2023-06-19T18:51:09.223Z,30.20
2023-06-19T18:53:36.641Z,30.10
2023-06-19T18:56:04.168Z,30.10
2023-06-19T18:58:31.700Z,30.10
2023-06-19T19:00:59.258Z,30.00
2023-06-19T19:03:27.380Z,30.00
2023-06-19T19:05:55.053Z,29.80
2023-06-19T19:08:23.909Z,29.40
2023-06-19T19:10:51.313Z,29.20
2023-06-19T19:13:18.605Z,29.00
2023-06-19T19:15:46.080Z,29.00
2023-06-19T19:18:13.716Z,28.90
2023-06-19T19:20:41.285Z,28.60
2023-06-19T19:23:09.503Z,28.60
2023-06-19T19:25:36.811Z,28.50
2023-06-19T19:28:04.355Z,28.40
2023-06-19T19:30:31.839Z,28.30
2023-06-19T19:32:59.295Z,28.20
2023-06-19T19:35:26.620Z,28.10
2023-06-19T19:37:53.938Z,28.10
2023-06-19T19:40:21.326Z,28.00
2023-06-19T19:42:48.630Z,28.00
2023-06-19T19:45:16.052Z,27.90
2023-06-19T19:47:43.332Z,27.70
2023-06-19T19:50:12.918Z,27.70
2023-06-19T19:52:40.174Z,27.60
2023-06-19T19:55:08.062Z,27.50
2023-06-19T19:57:35.366Z,27.40
2023-06-19T20:00:03.798Z,27.50
2023-06-19T20:02:34.076Z,27.40
2023-06-19T20:05:01.680Z,27.40
2023-06-19T20:07:31.338Z,27.40
2023-06-19T20:09:58.661Z,27.20
2023-06-19T20:12:30.453Z,27.00
2023-06-19T20:14:58.744Z,27.00
2023-06-19T20:17:26.175Z,27.00
2023-06-19T20:19:53.707Z,27.10
2023-06-19T20:22:23.429Z,27.10
2023-06-19T20:24:50.746Z,27.10
2023-06-19T20:27:18.351Z,27.10
2023-06-19T20:29:45.752Z,27.20
2023-06-19T20:32:13.253Z,27.30
2023-06-19T20:34:40.624Z,27.10
2023-06-19T20:37:07.976Z,27.00
2023-06-19T20:39:35.315Z,27.00
2023-06-19T20:42:03.632Z,27.10
2023-06-19T20:44:31.155Z,27.10
2023-06-19T20:47:01.476Z,27.00
2023-06-19T20:49:29.188Z,27.00
2023-06-19T20:51:56.947Z,26.90
2023-06-19T20:54:24.200Z,26.90
2023-06-19T20:56:51.532Z,26.90
2023-06-19T20:59:21.567Z,27.00
2023-06-19T21:01:55.534Z,27.00
2023-06-19T21:04:23.488Z,27.00
2023-06-19T21:06:50.834Z,27.00
2023-06-19T21:09:19.480Z,27.00
2023-06-19T21:11:47.578Z,27.00
2023-06-19T21:14:15.355Z,27.00
2023-06-19T21:16:42.792Z,27.20
2023-06-19T21:19:10.195Z,27.20
2023-06-19T21:21:37.515Z,27.20
2023-06-19T21:24:05.154Z,27.10
2023-06-19T21:26:32.622Z,27.10
2023-06-19T21:28:59.918Z,27.20
2023-06-19T21:31:27.207Z,27.20
2023-06-19T21:33:54.549Z,27.30
2023-06-19T21:36:21.848Z,27.40
2023-06-19T21:38:49.239Z,27.30
2023-06-19T21:41:16.587Z,27.10
2023-06-19T21:43:44.030Z,27.00
2023-06-19T21:46:11.489Z,27.00
2023-06-19T21:48:38.919Z,27.20
2023-06-19T21:51:06.275Z,27.20
2023-06-19T21:53:33.836Z,27.30
2023-06-19T21:56:01.242Z,27.30
2023-06-19T21:58:28.749Z,27.30
2023-06-19T22:00:56.121Z,27.30
2023-06-19T22:03:23.755Z,27.30
2023-06-19T22:05:51.228Z,27.20
2023-06-19T22:08:27.136Z,27.10
2023-06-19T22:11:01.334Z,27.20
2023-06-19T22:13:30.360Z,27.10
2023-06-19T22:15:57.661Z,27.00
2023-06-19T22:18:26.069Z,26.80
2023-06-19T22:20:53.493Z,26.90
2023-06-19T22:23:21.243Z,26.80
2023-06-19T22:25:48.607Z,26.70
2023-06-19T22:28:18.100Z,26.60
2023-06-19T22:30:45.680Z,26.60
2023-06-19T22:33:14.857Z,26.60
2023-06-19T22:35:42.348Z,26.50
2023-06-19T22:38:09.854Z,26.30
2023-06-19T22:40:37.171Z,26.20
2023-06-19T22:43:04.435Z,26.20
2023-06-19T22:45:31.701Z,26.10
2023-06-19T22:47:59.078Z,26.10
2023-06-19T22:50:26.753Z,26.10
2023-06-19T22:52:54.285Z,26.10
2023-06-19T22:55:22.038Z,26.10
2023-06-19T22:57:49.473Z,26.10
2023-06-19T23:00:16.970Z,26.10
2023-06-19T23:02:45.789Z,26.10
2023-06-19T23:05:14.253Z,26.10
2023-06-19T23:07:42.901Z,26.00
2023-06-19T23:10:10.864Z,26.00
2023-06-19T23:12:38.433Z,26.00
2023-06-19T23:15:07.820Z,25.90
2023-06-19T23:17:35.864Z,25.90
2023-06-19T23:20:05.639Z,25.90
2023-06-19T23:22:32.955Z,25.90
2023-06-19T23:25:01.428Z,25.90
2023-06-19T23:27:29.044Z,25.90
2023-06-19T23:29:56.335Z,25.90
2023-06-19T23:32:23.605Z,25.90
2023-06-19T23:34:51.074Z,25.90
2023-06-19T23:37:18.613Z,25.90
2023-06-19T23:39:45.877Z,25.90
2023-06-19T23:42:13.273Z,25.90
2023-06-19T23:44:40.671Z,25.90
2023-06-19T23:47:08.529Z,26.00
2023-06-19T23:49:36.187Z,25.90
2023-06-19T23:52:03.827Z,25.90
2023-06-19T23:54:31.379Z,25.80
2023-06-19T23:56:58.696Z,25.70
2023-06-19T23:59:25.983Z,25.60
